Terminal Aerodrome Forecast
Issued by NWS

Home | Current Version | Previous Version | Text Only | Print | Product List | Glossary On
Versions: 1 2 3 4 5 6 7 8 9 10 11 12 13 14 15 16 17 18 19 20 21 22 23
000
FTUS43 KLSX 280500
TAFUIN
TAF
KUIN 280525Z 2806/2906 13009KT 4SM BR SCT008
      TEMPO 2806/2809 BKN008
     FM281400 15016G24KT P6SM SCT015
     FM282300 19014KT P6SM BKN150=

USA.gov is the U.S. government's official web portal to all federal, state and local government web resources and services.